createdAt,value
2022-10-17T00:07:56.928Z,18.73
2022-10-17T00:18:11.527Z,21.10
2022-10-17T00:28:15.333Z,16.20
2022-10-17T00:38:17.146Z,19.23
2022-10-17T00:48:25.951Z,16.10
2022-10-17T00:58:29.629Z,19.03
2022-10-17T01:08:37.173Z,15.98
2022-10-17T01:30:27.268Z,16.83
2022-10-17T01:40:42.294Z,13.95
2022-10-17T01:50:53.376Z,15.20
2022-10-17T02:00:59.348Z,17.30
2022-10-17T02:11:11.225Z,17.83
2022-10-17T02:21:22.745Z,15.95
2022-10-17T02:31:36.547Z,17.52
2022-10-17T02:41:40.946Z,15.30
2022-10-17T02:51:49.279Z,18.33
2022-10-17T03:01:52.066Z,17.30
2022-10-17T03:11:53.980Z,17.02
2022-10-17T03:21:57.209Z,19.13
2022-10-17T03:31:59.229Z,16.73
2022-10-17T03:42:01.185Z,16.58
2022-10-17T03:52:03.676Z,18.00
2022-10-17T04:02:09.045Z,17.80
2022-10-17T04:23:15.364Z,17.92
2022-10-17T04:33:17.582Z,18.08
2022-10-17T04:43:19.739Z,15.35
2022-10-17T04:53:22.819Z,16.27
2022-10-17T05:03:25.096Z,16.13
2022-10-17T05:13:27.221Z,16.17
2022-10-17T05:23:30.235Z,14.90
2022-10-17T05:33:54.144Z,16.17
2022-10-17T05:55:23.725Z,15.02
2022-10-17T06:05:27.413Z,17.48
2022-10-17T06:15:31.198Z,17.23
2022-10-17T06:25:39.405Z,16.35
2022-10-17T06:35:41.947Z,16.17
2022-10-17T06:45:46.868Z,16.02
2022-10-17T07:07:45.541Z,16.42
2022-10-17T07:17:49.770Z,12.33
2022-10-17T07:27:56.327Z,12.93
2022-10-17T07:37:58.421Z,13.57
2022-10-17T07:48:00.314Z,14.43
2022-10-17T07:58:02.609Z,13.48
2022-10-17T08:08:07.577Z,11.23
2022-10-17T08:18:09.524Z,10.68
2022-10-17T08:28:11.356Z,9.75
2022-10-17T08:38:13.527Z,8.68
2022-10-17T08:48:23.256Z,10.15
2022-10-17T08:58:35.516Z,10.73
2022-10-17T09:08:47.999Z,8.90
2022-10-17T09:19:09.989Z,9.60
2022-10-17T09:29:20.202Z,10.05
2022-10-17T09:39:24.277Z,9.85
2022-10-17T09:49:35.082Z,13.05
2022-10-17T09:59:44.109Z,9.43
2022-10-17T10:09:47.902Z,9.82
2022-10-17T10:19:51.457Z,9.98
2022-10-17T10:29:53.588Z,8.32
2022-10-17T10:40:04.935Z,6.88
2022-10-17T10:50:42.982Z,8.70
2022-10-17T11:00:48.956Z,8.38
2022-10-17T11:11:29.455Z,9.68
2022-10-17T11:21:57.026Z,8.07
2022-10-17T11:32:15.327Z,8.75
2022-10-17T11:52:56.720Z,9.20
2022-10-17T12:03:20.608Z,8.17
2022-10-17T12:13:50.613Z,8.98
2022-10-17T12:23:54.460Z,8.23
2022-10-17T12:33:58.839Z,9.80
2022-10-17T12:44:00.734Z,7.40
2022-10-17T12:54:14.350Z,8.63
2022-10-17T13:04:16.784Z,9.40
2022-10-17T13:14:21.815Z,8.95
2022-10-17T13:24:38.275Z,9.55
2022-10-17T13:35:10.175Z,8.05
2022-10-17T13:45:31.499Z,9.68
2022-10-17T13:55:33.341Z,6.25
2022-10-17T14:05:35.469Z,4.72
2022-10-17T14:15:37.890Z,6.90
2022-10-17T14:25:41.126Z,8.05
2022-10-17T14:35:55.478Z,6.68
2022-10-17T14:45:59.504Z,7.25
2022-10-17T14:56:04.084Z,7.40
2022-10-17T15:06:28.898Z,7.03
2022-10-17T15:16:35.277Z,8.45
2022-10-17T15:26:37.512Z,6.57
2022-10-17T15:36:41.583Z,13.90
2022-10-17T15:46:43.626Z,7.60
2022-10-17T15:56:54.627Z,8.05
2022-10-17T16:06:56.500Z,8.80
2022-10-17T16:17:02.355Z,10.40
2022-10-17T16:27:04.221Z,11.50
2022-10-17T16:37:06.034Z,21.38
2022-10-17T16:47:08.464Z,30.10
2022-10-17T16:57:10.325Z,30.08
2022-10-17T17:07:12.201Z,18.50
2022-10-17T17:17:24.465Z,19.67
2022-10-17T17:27:36.189Z,21.25
2022-10-17T17:37:41.658Z,19.33
2022-10-17T17:47:43.469Z,22.63
2022-10-17T17:57:45.219Z,22.13
2022-10-17T18:07:47.146Z,19.95
2022-10-17T18:17:49.111Z,21.65
2022-10-17T18:27:56.228Z,23.88
2022-10-17T18:38:01.279Z,33.20
2022-10-17T18:48:08.500Z,29.55
2022-10-17T18:58:10.388Z,25.67
2022-10-17T19:08:16.275Z,30.60
2022-10-17T19:18:24.375Z,24.10
2022-10-17T19:28:26.244Z,19.50
2022-10-17T19:38:35.395Z,18.98
2022-10-17T19:48:38.500Z,16.58
2022-10-17T19:58:40.397Z,16.73
2022-10-17T20:08:42.815Z,17.08
2022-10-17T20:18:58.128Z,17.42
2022-10-17T20:29:05.257Z,22.70
2022-10-17T20:39:15.201Z,20.30
2022-10-17T20:49:19.785Z,21.25
2022-10-17T20:59:21.820Z,14.80
2022-10-17T21:09:24.087Z,19.73
2022-10-17T21:19:26.133Z,17.40
2022-10-17T21:29:29.577Z,15.05
2022-10-17T21:39:43.748Z,16.25
2022-10-17T21:49:45.572Z,15.10
2022-10-17T21:59:48.835Z,14.88
2022-10-17T22:09:50.675Z,14.48
2022-10-17T22:19:52.447Z,15.30
2022-10-17T22:29:54.252Z,17.05
2022-10-17T22:39:56.456Z,12.77
2022-10-17T22:49:58.303Z,17.45
2022-10-17T23:00:00.211Z,13.80
2022-10-17T23:10:02.166Z,13.63
2022-10-17T23:20:04.404Z,14.10
2022-10-17T23:30:08.056Z,13.48
2022-10-17T23:40:10.582Z,13.95
2022-10-17T23:50:12.836Z,11.40
